Time;durP1;ratioP1;P1;durP2;ratioP2;P2;SDS_P1;SDS_P2;PMS_P1;PMS_P2;Temp;Humidity;BMP_temperature;BMP_pressure;BME280_temperature;BME280_humidity;BME280_pressure;Samples;Min_cycle;Max_cycle;Signal;HPM_P1;HPM_P2
2023/05/08 00:07:44;;;;;;;2.30;1.93;;;;;;;;;;21041057;28;20232;-83
2023/05/08 00:17:46;;;;;;;2.80;1.87;;;;;;;;;;21076232;28;20690;-82
2023/05/08 00:27:47;;;;;;;2.43;1.80;;;;;;;;;;21062630;28;20709;-85
2023/05/08 00:37:49;;;;;;;2.23;1.80;;;;;;;;;;21074100;28;20232;-82
2023/05/08 00:47:51;;;;;;;2.97;1.60;;;;;;;;;;21057699;28;20240;-82
2023/05/08 00:57:54;;;;;;;2.10;1.60;;;;;;;;;;21080870;28;20266;-82
2023/05/08 01:07:55;;;;;;;2.60;1.60;;;;;;;;;;21055645;28;20297;-82
2023/05/08 01:18:18;;;;;;;2.50;1.60;;;17.60;99.90;;;;;;21076754;28;20216;-82
2023/05/08 01:28:32;;;;;;;2.80;2.10;;;;;;;;;;21015031;28;20573;-82
2023/05/08 01:38:37;;;;;;;2.57;1.63;;;;;;;;;;20945749;28;20298;-83
2023/05/08 01:48:45;;;;;;;3.57;1.90;;;17.40;99.90;;;;;;21021863;28;20770;-83
2023/05/08 01:58:49;;;;;;;3.33;2.00;;;17.40;99.90;;;;;;21051287;28;20686;-82
2023/05/08 02:08:51;;;;;;;2.60;1.97;;;;;;;;;;21050401;28;20224;-82
2023/05/08 02:18:57;;;;;;;2.60;1.80;;;17.40;99.90;;;;;;21070529;28;20243;-82
2023/05/08 02:29:00;;;;;;;2.17;1.77;;;;;;;;;;21083933;28;20232;-82
2023/05/08 02:39:02;;;;;;;2.43;1.70;;;;;;;;;;21048001;28;20590;-82
2023/05/08 02:49:07;;;;;;;3.03;1.47;;;;;;;;;;21047083;28;20232;-83
2023/05/08 02:59:09;;;;;;;2.20;1.53;;;;;;;;;;21053326;28;20271;-82
2023/05/08 03:09:20;;;;;;;2.87;1.50;;;17.30;99.90;;;;;;20997134;28;20233;-83
2023/05/08 03:19:29;;;;;;;1.90;1.30;;;17.10;99.90;;;;;;20978542;28;20243;-82
2023/05/08 03:29:32;;;;;;;1.93;1.50;;;17.40;99.90;;;;;;21088643;28;20232;-82
2023/05/08 03:39:34;;;;;;;1.87;1.47;;;;;;;;;;21020526;28;20260;-82
2023/05/08 03:49:37;;;;;;;2.17;1.60;;;17.20;99.90;;;;;;20956979;28;20771;-82
2023/05/08 04:00:05;;;;;;;2.17;1.60;;;17.20;99.90;;;;;;20979159;28;20212;-82
2023/05/08 04:10:28;;;;;;;1.50;1.20;;;;;;;;;;21056945;28;20285;-82
2023/05/08 04:20:31;;;;;;;1.97;1.50;;;;;;;;;;21089805;28;20354;-82
2023/05/08 04:30:34;;;;;;;1.83;1.50;;;;;;;;;;21062227;28;20254;-82
2023/05/08 04:40:36;;;;;;;2.30;1.63;;;;;;;;;;20986761;28;20742;-84
2023/05/08 04:50:39;;;;;;;3.13;2.30;;;;;;;;;;20889314;28;20229;-83
2023/05/08 05:00:40;;;;;;;3.20;2.20;;;;;;;;;;20977401;28;20614;-84
2023/05/08 05:10:43;;;;;;;3.40;2.53;;;;;;;;;;21051238;28;20220;-83
2023/05/08 05:20:45;;;;;;;3.37;2.60;;;;;;;;;;21023799;28;20220;-84
2023/05/08 05:30:47;;;;;;;3.67;2.70;;;;;;;;;;21032851;28;20657;-83
2023/05/08 05:40:52;;;;;;;3.23;2.43;;;;;;;;;;21018796;28;20233;-83
2023/05/08 05:50:53;;;;;;;4.37;2.60;;;;;;;;;;21088725;28;20289;-81
2023/05/08 06:00:56;;;;;;;4.23;2.57;;;;;;;;;;20968359;28;20209;-82
2023/05/08 06:10:58;;;;;;;2.83;2.40;;;;;;;;;;20946726;28;20271;-81
2023/05/08 06:21:00;;;;;;;4.30;2.90;;;;;;;;;;20981494;28;20226;-82
2023/05/08 06:31:02;;;;;;;5.97;2.67;;;;;;;;;;20949603;28;20221;-81
2023/05/08 06:41:04;;;;;;;3.67;2.53;;;;;;;;;;20982167;28;20232;-81
2023/05/08 06:51:05;;;;;;;3.50;2.57;;;;;;;;;;21037980;28;20232;-81
2023/05/08 07:01:07;;;;;;;3.50;2.40;;;;;;;;;;21054985;28;20301;-81
2023/05/08 07:11:10;;;;;;;4.30;2.67;;;;;;;;;;21070815;28;20224;-81
2023/05/08 07:21:14;;;;;;;3.77;2.60;;;;;;;;;;21073213;28;20217;-81
2023/05/08 07:31:16;;;;;;;3.67;2.73;;;;;;;;;;21094416;28;20584;-81
2023/05/08 07:41:17;;;;;;;3.47;2.33;;;;;;;;;;20978769;28;20657;-81
2023/05/08 07:51:19;;;;;;;3.20;2.27;;;;;;;;;;20939058;28;20291;-82
2023/05/08 08:01:24;;;;;;;3.50;2.57;;;;;;;;;;20985753;28;20252;-81
2023/05/08 08:11:26;;;;;;;4.73;2.63;;;;;;;;;;20987495;28;20270;-81
2023/05/08 08:21:28;;;;;;;3.03;2.43;;;;;;;;;;21032355;28;20269;-82
2023/05/08 08:31:34;;;;;;;3.50;3.10;;;;;;;;;;21021197;28;20236;-82
2023/05/08 08:41:35;;;;;;;4.20;3.30;;;;;;;;;;21009002;28;20732;-81
2023/05/08 08:51:45;;;;;;;4.83;3.63;;;;;;;;;;21051931;28;20717;-82
2023/05/08 09:01:50;;;;;;;5.63;3.50;;;;;;;;;;20986601;28;20212;-81
2023/05/08 09:11:52;;;;;;;3.80;2.93;;;;;;;;;;20993866;28;20233;-81
2023/05/08 09:21:54;;;;;;;3.83;2.57;;;;;;;;;;20993873;28;20217;-81
2023/05/08 09:31:56;;;;;;;4.20;3.03;;;;;;;;;;20980934;28;20298;-80
2023/05/08 09:42:03;;;;;;;3.90;3.00;;;17.10;99.90;;;;;;20956652;28;20237;-80
2023/05/08 09:52:04;;;;;;;3.50;2.67;;;;;;;;;;21008864;28;20232;-81
2023/05/08 10:02:11;;;;;;;3.90;2.80;;;;;;;;;;21092834;28;20296;-80
2023/05/08 10:12:12;;;;;;;4.33;3.57;;;;;;;;;;21020887;28;20220;-80
2023/05/08 10:22:15;;;;;;;4.03;3.10;;;;;;;;;;20985894;28;20691;-80
2023/05/08 10:32:18;;;;;;;4.17;2.80;;;;;;;;;;21007003;28;20697;-80
2023/05/08 10:42:21;;;;;;;3.53;3.23;;;;;;;;;;20982328;28;20210;-80
2023/05/08 10:52:23;;;;;;;3.80;3.00;;;;;;;;;;20994013;28;20221;-80
2023/05/08 11:02:35;;;;;;;4.40;3.17;;;18.10;99.90;;;;;;20980238;28;20221;-79
2023/05/08 11:12:49;;;;;;;4.47;3.60;;;18.30;99.90;;;;;;20956204;28;20229;-79
2023/05/08 11:22:51;;;;;;;5.20;3.60;;;;;;;;;;21057787;28;20221;-80
2023/05/08 11:32:59;;;;;;;5.80;4.23;;;;;;;;;;20911637;28;20262;-80
2023/05/08 11:43:18;;;;;;;4.43;3.60;;;;;;;;;;21055207;28;20297;-80
2023/05/08 11:53:26;;;;;;;4.67;3.50;;;;;;;;;;20978909;28;20694;-80
2023/05/08 12:03:28;;;;;;;4.00;3.37;;;;;;;;;;20971287;28;20288;-81
2023/05/08 12:13:30;;;;;;;4.90;3.60;;;;;;;;;;21041116;28;20221;-81
2023/05/08 12:23:32;;;;;;;5.10;3.87;;;;;;;;;;21013477;28;20304;-81
2023/05/08 12:33:34;;;;;;;4.70;3.70;;;;;;;;;;21054153;28;20218;-81
2023/05/08 12:43:36;;;;;;;5.90;4.17;;;;;;;;;;21004203;28;20229;-81
2023/05/08 12:53:38;;;;;;;4.40;3.57;;;;;;;;;;20994461;28;20224;-82
2023/05/08 13:03:40;;;;;;;4.50;3.83;;;19.90;99.90;;;;;;21006191;28;20233;-82
2023/05/08 13:13:42;;;;;;;4.63;3.80;;;;;;;;;;21005405;28;20761;-82
2023/05/08 13:23:45;;;;;;;5.60;4.50;;;;;;;;;;21004225;28;20227;-81
2023/05/08 13:33:46;;;;;;;5.00;3.97;;;;;;;;;;21003032;28;20226;-82
2023/05/08 13:43:48;;;;;;;5.60;5.00;;;;;;;;;;21002883;28;20222;-82
2023/05/08 13:53:50;;;;;;;5.63;4.93;;;;;;;;;;21000610;28;20580;-81
2023/05/08 14:03:52;;;;;;;6.73;5.30;;;;;;;;;;21021912;28;20218;-82
2023/05/08 14:13:54;;;;;;;6.13;4.83;;;;;;;;;;20981600;28;20216;-83
2023/05/08 14:23:55;;;;;;;5.20;4.53;;;;;;;;;;20982276;28;20344;-82
2023/05/08 14:33:57;;;;;;;5.27;3.90;;;;;;;;;;20980212;28;20226;-81
2023/05/08 14:44:00;;;;;;;5.87;3.90;;;;;;;;;;20997174;28;20247;-82
2023/05/08 14:54:01;;;;;;;4.10;3.47;;;;;;;;;;20960558;28;20261;-82
2023/05/08 15:04:03;;;;;;;4.30;3.40;;;;;;;;;;20961245;28;20295;-83
2023/05/08 15:14:08;;;;;;;3.47;3.17;;;;;;;;;;20961069;28;20214;-82
2023/05/08 15:24:10;;;;;;;3.53;2.60;;;;;;;;;;20993865;28;20280;-81
2023/05/08 15:34:12;;;;;;;4.67;2.47;;;;;;;;;;21016743;28;20265;-82
2023/05/08 15:44:13;;;;;;;3.90;2.20;;;;;;;;;;21017084;28;20556;-81
2023/05/08 15:54:15;;;;;;;2.53;1.83;;;;;;;;;;20960517;28;20203;-81
2023/05/08 16:04:17;;;;;;;3.53;1.73;;;;;;;;;;21000441;28;20238;-81
2023/05/08 16:14:19;;;;;;;2.43;1.63;;;;;;;;;;20994098;28;20304;-81
2023/05/08 16:24:21;;;;;;;2.97;1.60;;;;;;;;;;20993466;28;20226;-81
2023/05/08 16:34:23;;;;;;;3.20;1.80;;;;;;;;;;21009669;28;20223;-80
2023/05/08 16:44:24;;;;;;;3.60;1.70;;;;;;;;;;21009574;28;20241;-81
2023/05/08 16:54:26;;;;;;;2.10;1.60;;;;;;;;;;21014981;28;20215;-80
2023/05/08 17:04:28;;;;;;;2.43;1.90;;;;;;;;;;21008101;28;20241;-82
2023/05/08 17:14:30;;;;;;;2.10;1.60;;;;;;;;;;21046471;28;20272;-81
2023/05/08 17:24:32;;;;;;;2.43;1.47;;;;;;;;;;21087171;28;20231;-81
2023/05/08 17:34:33;;;;;;;2.50;1.70;;;;;;;;;;21016954;28;20266;-81
2023/05/08 17:44:35;;;;;;;2.70;1.90;;;;;;;;;;21039154;28;20224;-80
2023/05/08 17:54:37;;;;;;;3.20;1.70;;;;;;;;;;21063093;28;20222;-81
2023/05/08 18:04:40;;;;;;;2.90;1.70;;;;;;;;;;21050333;28;20597;-83
2023/05/08 18:14:48;;;;;;;4.37;1.83;;;;;;;;;;21020946;28;20214;-80
2023/05/08 18:24:51;;;;;;;2.53;1.93;;;;;;;;;;21013657;28;20270;-80
2023/05/08 18:34:53;;;;;;;3.10;2.23;;;;;;;;;;20910864;28;20218;-80
2023/05/08 18:44:55;;;;;;;2.90;1.87;;;;;;;;;;21067829;28;20225;-80
2023/05/08 18:54:57;;;;;;;2.70;1.77;;;;;;;;;;21013617;28;20270;-80
2023/05/08 19:05:00;;;;;;;3.07;2.23;;;;;;;;;;20981951;28;20253;-81
2023/05/08 19:15:01;;;;;;;2.20;1.80;;;;;;;;;;21020013;28;20278;-82
2023/05/08 19:25:05;;;;;;;2.97;2.20;;;;;;;;;;21061004;28;20222;-83
2023/05/08 19:35:08;;;;;;;3.60;2.50;;;;;;;;;;21078024;28;20229;-84
2023/05/08 19:45:10;;;;;;;2.83;1.90;;;;;;;;;;20968931;28;20268;-80
2023/05/08 19:55:12;;;;;;;2.73;2.07;;;19.00;99.90;;;;;;20989862;28;20215;-80
2023/05/08 20:05:14;;;;;;;4.10;2.30;;;;;;;;;;21013961;28;20248;-80
2023/05/08 20:15:16;;;;;;;2.80;2.17;;;;;;;;;;20968555;28;20206;-80
2023/05/08 20:25:17;;;;;;;3.47;2.33;;;;;;;;;;21004133;28;20272;-81
2023/05/08 20:35:19;;;;;;;2.47;1.90;;;;;;;;;;20975429;28;20232;-80
2023/05/08 20:45:21;;;;;;;3.63;2.40;;;;;;;;;;21064333;28;20262;-81
2023/05/08 20:55:23;;;;;;;3.87;2.57;;;;;;;;;;21076059;28;20218;-81
2023/05/08 21:05:26;;;;;;;3.20;2.30;;;;;;;;;;21142171;28;20299;-81
2023/05/08 21:15:28;;;;;;;3.07;2.20;;;;;;;;;;21109965;28;20580;-80
2023/05/08 21:25:30;;;;;;;3.83;2.53;;;;;;;;;;21091124;28;20483;-80
2023/05/08 21:35:31;;;;;;;3.17;2.57;;;;;;;;;;21083494;28;20225;-80
2023/05/08 21:45:33;;;;;;;3.40;2.60;;;;;;;;;;20955470;28;20317;-81
2023/05/08 21:55:35;;;;;;;5.10;2.73;;;;;;;;;;20936909;28;20307;-82
2023/05/08 22:05:41;;;;;;;3.50;2.47;;;17.90;99.90;;;;;;21015921;28;20287;-82
2023/05/08 22:26:11;;;;;;;3.13;2.50;;;;;;;;;;20972129;28;20276;-80
2023/05/08 22:36:13;;;;;;;2.90;2.40;;;;;;;;;;20982715;28;20229;-80
2023/05/08 22:46:15;;;;;;;2.70;2.13;;;;;;;;;;21000236;28;20225;-80
2023/05/08 22:56:16;;;;;;;3.17;2.10;;;;;;;;;;20998226;28;20280;-80
2023/05/08 23:06:18;;;;;;;2.73;2.07;;;;;;;;;;20978068;28;20225;-79
2023/05/08 23:16:19;;;;;;;3.20;2.30;;;;;;;;;;20978686;28;20218;-80
2023/05/08 23:26:21;;;;;;;4.50;2.60;;;;;;;;;;20977672;28;20213;-79
2023/05/08 23:36:23;;;;;;;4.00;2.07;;;;;;;;;;20994461;28;20233;-80
2023/05/08 23:46:25;;;;;;;4.20;2.60;;;;;;;;;;20980330;28;21027;-80
2023/05/08 23:56:26;;;;;;;3.50;2.30;;;;;;;;;;20993044;28;20259;-80
